sensor_id;sensor_type;location;lat;lon;timestamp;P1;durP1;ratioP1;P2;durP2;ratioP2
56830;SDS011;42713;42.676;23.352;2023-09-18T00:02:25;19.85;;;13.40;;
56830;SDS011;42713;42.676;23.352;2023-09-18T00:04:51;22.10;;;13.88;;
56830;SDS011;42713;42.676;23.352;2023-09-18T00:07:17;18.02;;;14.13;;
56830;SDS011;42713;42.676;23.352;2023-09-18T00:09:43;20.70;;;14.55;;
56830;SDS011;42713;42.676;23.352;2023-09-18T00:12:08;20.83;;;15.20;;
56830;SDS011;42713;42.676;23.352;2023-09-18T00:14:35;23.40;;;15.45;;
56830;SDS011;42713;42.676;23.352;2023-09-18T00:17:01;20.98;;;15.80;;
56830;SDS011;42713;42.676;23.352;2023-09-18T00:19:27;22.73;;;15.70;;
56830;SDS011;42713;42.676;23.352;2023-09-18T00:21:53;20.75;;;15.27;;
56830;SDS011;42713;42.676;23.352;2023-09-18T00:24:19;21.23;;;15.95;;
56830;SDS011;42713;42.676;23.352;2023-09-18T00:26:45;21.08;;;15.35;;
56830;SDS011;42713;42.676;23.352;2023-09-18T00:29:13;19.48;;;15.27;;
56830;SDS011;42713;42.676;23.352;2023-09-18T00:31:39;22.58;;;17.08;;
56830;SDS011;42713;42.676;23.352;2023-09-18T00:34:04;20.48;;;15.75;;
56830;SDS011;42713;42.676;23.352;2023-09-18T00:36:30;21.27;;;16.48;;
56830;SDS011;42713;42.676;23.352;2023-09-18T00:38:55;24.02;;;17.05;;
56830;SDS011;42713;42.676;23.352;2023-09-18T00:41:20;22.67;;;17.35;;
56830;SDS011;42713;42.676;23.352;2023-09-18T00:43:46;21.40;;;16.85;;
56830;SDS011;42713;42.676;23.352;2023-09-18T00:46:11;22.13;;;17.42;;
56830;SDS011;42713;42.676;23.352;2023-09-18T00:48:37;24.48;;;17.88;;
56830;SDS011;42713;42.676;23.352;2023-09-18T00:51:03;23.10;;;17.92;;
56830;SDS011;42713;42.676;23.352;2023-09-18T00:53:28;28.27;;;18.45;;
56830;SDS011;42713;42.676;23.352;2023-09-18T00:55:55;23.63;;;16.80;;
56830;SDS011;42713;42.676;23.352;2023-09-18T00:58:25;21.42;;;17.10;;
56830;SDS011;42713;42.676;23.352;2023-09-18T01:00:51;23.73;;;16.73;;
56830;SDS011;42713;42.676;23.352;2023-09-18T01:03:17;23.65;;;17.15;;
56830;SDS011;42713;42.676;23.352;2023-09-18T01:05:44;21.65;;;16.20;;
56830;SDS011;42713;42.676;23.352;2023-09-18T01:08:10;21.92;;;16.35;;
56830;SDS011;42713;42.676;23.352;2023-09-18T01:13:54;20.23;;;15.57;;
56830;SDS011;42713;42.676;23.352;2023-09-18T01:16:37;18.58;;;13.98;;
56830;SDS011;42713;42.676;23.352;2023-09-18T01:19:10;19.33;;;13.82;;
56830;SDS011;42713;42.676;23.352;2023-09-18T01:21:36;20.08;;;12.32;;
56830;SDS011;42713;42.676;23.352;2023-09-18T01:24:02;14.93;;;11.55;;
56830;SDS011;42713;42.676;23.352;2023-09-18T01:26:28;15.27;;;11.98;;
56830;SDS011;42713;42.676;23.352;2023-09-18T01:28:53;20.20;;;12.13;;
56830;SDS011;42713;42.676;23.352;2023-09-18T01:31:19;16.20;;;11.85;;
56830;SDS011;42713;42.676;23.352;2023-09-18T01:33:45;19.45;;;11.90;;
56830;SDS011;42713;42.676;23.352;2023-09-18T01:36:12;18.58;;;11.55;;
56830;SDS011;42713;42.676;23.352;2023-09-18T01:38:39;17.83;;;12.02;;
56830;SDS011;42713;42.676;23.352;2023-09-18T01:41:05;18.17;;;11.90;;
56830;SDS011;42713;42.676;23.352;2023-09-18T01:43:31;17.27;;;11.18;;
56830;SDS011;42713;42.676;23.352;2023-09-18T01:45:57;14.68;;;11.10;;
56830;SDS011;42713;42.676;23.352;2023-09-18T01:48:22;16.20;;;11.15;;
56830;SDS011;42713;42.676;23.352;2023-09-18T01:50:48;14.60;;;10.75;;
56830;SDS011;42713;42.676;23.352;2023-09-18T01:53:13;17.50;;;11.55;;
56830;SDS011;42713;42.676;23.352;2023-09-18T01:55:39;15.27;;;11.25;;
56830;SDS011;42713;42.676;23.352;2023-09-18T01:58:04;14.45;;;11.35;;
56830;SDS011;42713;42.676;23.352;2023-09-18T02:00:29;15.73;;;11.52;;
56830;SDS011;42713;42.676;23.352;2023-09-18T02:02:55;16.13;;;11.98;;
56830;SDS011;42713;42.676;23.352;2023-09-18T02:05:21;16.10;;;11.55;;
56830;SDS011;42713;42.676;23.352;2023-09-18T02:07:47;14.88;;;11.60;;
56830;SDS011;42713;42.676;23.352;2023-09-18T02:10:12;22.33;;;13.02;;
56830;SDS011;42713;42.676;23.352;2023-09-18T02:12:38;19.50;;;12.45;;
56830;SDS011;42713;42.676;23.352;2023-09-18T02:15:04;23.20;;;12.85;;
56830;SDS011;42713;42.676;23.352;2023-09-18T02:17:32;18.13;;;13.02;;
56830;SDS011;42713;42.676;23.352;2023-09-18T02:19:57;17.65;;;13.02;;
56830;SDS011;42713;42.676;23.352;2023-09-18T02:22:24;18.77;;;12.43;;
56830;SDS011;42713;42.676;23.352;2023-09-18T02:24:50;17.50;;;12.55;;
56830;SDS011;42713;42.676;23.352;2023-09-18T02:27:15;18.60;;;13.55;;
56830;SDS011;42713;42.676;23.352;2023-09-18T02:29:45;17.80;;;12.85;;
56830;SDS011;42713;42.676;23.352;2023-09-18T02:32:11;18.20;;;12.93;;
56830;SDS011;42713;42.676;23.352;2023-09-18T02:34:36;18.02;;;12.88;;
56830;SDS011;42713;42.676;23.352;2023-09-18T02:37:02;16.42;;;12.80;;
56830;SDS011;42713;42.676;23.352;2023-09-18T02:39:28;18.00;;;13.52;;
56830;SDS011;42713;42.676;23.352;2023-09-18T02:41:53;17.02;;;12.07;;
56830;SDS011;42713;42.676;23.352;2023-09-18T02:44:19;16.23;;;10.90;;
56830;SDS011;42713;42.676;23.352;2023-09-18T02:46:44;15.63;;;11.45;;
56830;SDS011;42713;42.676;23.352;2023-09-18T02:49:10;14.88;;;11.35;;
56830;SDS011;42713;42.676;23.352;2023-09-18T02:51:35;15.85;;;10.88;;
56830;SDS011;42713;42.676;23.352;2023-09-18T02:54:01;15.98;;;10.52;;
56830;SDS011;42713;42.676;23.352;2023-09-18T02:56:27;16.73;;;10.55;;
56830;SDS011;42713;42.676;23.352;2023-09-18T02:58:53;14.18;;;10.27;;
56830;SDS011;42713;42.676;23.352;2023-09-18T03:01:18;16.33;;;10.80;;
56830;SDS011;42713;42.676;23.352;2023-09-18T03:03:44;15.48;;;9.70;;
56830;SDS011;42713;42.676;23.352;2023-09-18T03:06:09;18.90;;;10.57;;
56830;SDS011;42713;42.676;23.352;2023-09-18T03:08:35;16.25;;;10.48;;
56830;SDS011;42713;42.676;23.352;2023-09-18T03:11:01;19.98;;;11.98;;
56830;SDS011;42713;42.676;23.352;2023-09-18T03:13:27;18.58;;;10.85;;
56830;SDS011;42713;42.676;23.352;2023-09-18T03:15:53;20.15;;;11.57;;
56830;SDS011;42713;42.676;23.352;2023-09-18T03:18:19;20.10;;;14.05;;
56830;SDS011;42713;42.676;23.352;2023-09-18T03:20:44;20.67;;;13.38;;
56830;SDS011;42713;42.676;23.352;2023-09-18T03:23:10;17.48;;;12.63;;
56830;SDS011;42713;42.676;23.352;2023-09-18T03:25:35;18.52;;;12.70;;
56830;SDS011;42713;42.676;23.352;2023-09-18T03:28:02;19.23;;;11.63;;
56830;SDS011;42713;42.676;23.352;2023-09-18T03:30:28;19.70;;;11.65;;
56830;SDS011;42713;42.676;23.352;2023-09-18T03:32:54;17.02;;;11.85;;
56830;SDS011;42713;42.676;23.352;2023-09-18T03:35:20;16.17;;;11.75;;
56830;SDS011;42713;42.676;23.352;2023-09-18T03:37:46;19.23;;;12.27;;
56830;SDS011;42713;42.676;23.352;2023-09-18T03:40:16;20.67;;;12.35;;
56830;SDS011;42713;42.676;23.352;2023-09-18T03:42:42;17.63;;;12.60;;
56830;SDS011;42713;42.676;23.352;2023-09-18T03:45:08;21.30;;;13.15;;
56830;SDS011;42713;42.676;23.352;2023-09-18T03:47:35;20.77;;;12.75;;
56830;SDS011;42713;42.676;23.352;2023-09-18T03:50:02;19.50;;;12.57;;
56830;SDS011;42713;42.676;23.352;2023-09-18T03:52:28;21.77;;;12.60;;
56830;SDS011;42713;42.676;23.352;2023-09-18T03:54:55;20.38;;;12.82;;
56830;SDS011;42713;42.676;23.352;2023-09-18T03:57:20;22.00;;;12.38;;
56830;SDS011;42713;42.676;23.352;2023-09-18T03:59:46;25.73;;;13.43;;
56830;SDS011;42713;42.676;23.352;2023-09-18T04:02:11;20.80;;;13.57;;
56830;SDS011;42713;42.676;23.352;2023-09-18T04:04:37;20.70;;;12.90;;
56830;SDS011;42713;42.676;23.352;2023-09-18T04:07:05;19.50;;;12.88;;
56830;SDS011;42713;42.676;23.352;2023-09-18T04:09:31;23.65;;;13.88;;
56830;SDS011;42713;42.676;23.352;2023-09-18T04:11:57;23.83;;;14.23;;
56830;SDS011;42713;42.676;23.352;2023-09-18T04:14:22;19.23;;;14.63;;
56830;SDS011;42713;42.676;23.352;2023-09-18T04:16:48;23.50;;;14.55;;
56830;SDS011;42713;42.676;23.352;2023-09-18T04:19:13;22.02;;;14.90;;
56830;SDS011;42713;42.676;23.352;2023-09-18T04:21:39;24.50;;;14.93;;
56830;SDS011;42713;42.676;23.352;2023-09-18T04:24:04;22.35;;;14.07;;
56830;SDS011;42713;42.676;23.352;2023-09-18T04:26:30;23.00;;;15.43;;
56830;SDS011;42713;42.676;23.352;2023-09-18T04:28:56;30.27;;;15.27;;
56830;SDS011;42713;42.676;23.352;2023-09-18T04:31:22;24.90;;;15.07;;
56830;SDS011;42713;42.676;23.352;2023-09-18T04:33:48;21.90;;;15.43;;
56830;SDS011;42713;42.676;23.352;2023-09-18T04:36:13;20.73;;;15.48;;
56830;SDS011;42713;42.676;23.352;2023-09-18T04:38:39;22.67;;;15.43;;
56830;SDS011;42713;42.676;23.352;2023-09-18T04:41:04;27.08;;;15.75;;
56830;SDS011;42713;42.676;23.352;2023-09-18T04:43:33;24.17;;;15.77;;
56830;SDS011;42713;42.676;23.352;2023-09-18T04:46:00;24.20;;;14.82;;
56830;SDS011;42713;42.676;23.352;2023-09-18T04:48:27;25.52;;;15.30;;
56830;SDS011;42713;42.676;23.352;2023-09-18T04:50:52;21.10;;;15.43;;
56830;SDS011;42713;42.676;23.352;2023-09-18T04:53:18;25.77;;;15.57;;
56830;SDS011;42713;42.676;23.352;2023-09-18T04:55:43;22.45;;;15.57;;
56830;SDS011;42713;42.676;23.352;2023-09-18T04:58:09;21.38;;;14.45;;
56830;SDS011;42713;42.676;23.352;2023-09-18T05:00:34;23.67;;;15.65;;
56830;SDS011;42713;42.676;23.352;2023-09-18T05:03:00;27.92;;;16.20;;
56830;SDS011;42713;42.676;23.352;2023-09-18T05:05:32;24.73;;;15.38;;
56830;SDS011;42713;42.676;23.352;2023-09-18T05:07:58;25.25;;;16.25;;
56830;SDS011;42713;42.676;23.352;2023-09-18T05:10:23;21.27;;;15.75;;
56830;SDS011;42713;42.676;23.352;2023-09-18T05:12:49;21.73;;;15.57;;
56830;SDS011;42713;42.676;23.352;2023-09-18T05:15:15;27.95;;;16.20;;
56830;SDS011;42713;42.676;23.352;2023-09-18T05:17:45;31.35;;;16.80;;
56830;SDS011;42713;42.676;23.352;2023-09-18T05:20:12;26.25;;;16.23;;
56830;SDS011;42713;42.676;23.352;2023-09-18T05:22:40;23.88;;;15.68;;
56830;SDS011;42713;42.676;23.352;2023-09-18T05:25:07;24.02;;;15.40;;
56830;SDS011;42713;42.676;23.352;2023-09-18T05:27:35;26.52;;;14.77;;
56830;SDS011;42713;42.676;23.352;2023-09-18T05:30:09;21.67;;;14.98;;
56830;SDS011;42713;42.676;23.352;2023-09-18T05:32:46;24.05;;;15.75;;
56830;SDS011;42713;42.676;23.352;2023-09-18T05:35:13;22.05;;;15.75;;
56830;SDS011;42713;42.676;23.352;2023-09-18T05:37:39;22.75;;;15.13;;
56830;SDS011;42713;42.676;23.352;2023-09-18T05:40:10;27.40;;;15.98;;
56830;SDS011;42713;42.676;23.352;2023-09-18T05:42:41;28.30;;;16.38;;
56830;SDS011;42713;42.676;23.352;2023-09-18T05:45:09;26.52;;;16.20;;
56830;SDS011;42713;42.676;23.352;2023-09-18T05:47:38;25.95;;;16.95;;
56830;SDS011;42713;42.676;23.352;2023-09-18T05:50:07;25.90;;;17.25;;
56830;SDS011;42713;42.676;23.352;2023-09-18T05:52:34;27.55;;;16.83;;
56830;SDS011;42713;42.676;23.352;2023-09-18T05:55:00;31.85;;;18.38;;
56830;SDS011;42713;42.676;23.352;2023-09-18T05:57:26;26.45;;;17.20;;
56830;SDS011;42713;42.676;23.352;2023-09-18T05:59:54;25.45;;;17.17;;
56830;SDS011;42713;42.676;23.352;2023-09-18T06:02:20;23.23;;;16.20;;
56830;SDS011;42713;42.676;23.352;2023-09-18T06:04:46;24.70;;;18.17;;
56830;SDS011;42713;42.676;23.352;2023-09-18T06:07:11;23.60;;;16.02;;
56830;SDS011;42713;42.676;23.352;2023-09-18T06:09:38;27.77;;;17.00;;
56830;SDS011;42713;42.676;23.352;2023-09-18T06:12:04;21.13;;;15.23;;
56830;SDS011;42713;42.676;23.352;2023-09-18T06:14:30;21.52;;;15.32;;
56830;SDS011;42713;42.676;23.352;2023-09-18T06:16:56;23.48;;;14.77;;
56830;SDS011;42713;42.676;23.352;2023-09-18T06:19:22;24.48;;;15.20;;
56830;SDS011;42713;42.676;23.352;2023-09-18T06:21:48;24.38;;;13.80;;
56830;SDS011;42713;42.676;23.352;2023-09-18T06:24:13;21.75;;;13.85;;
56830;SDS011;42713;42.676;23.352;2023-09-18T06:26:39;21.25;;;14.68;;
56830;SDS011;42713;42.676;23.352;2023-09-18T06:29:05;21.25;;;14.50;;
56830;SDS011;42713;42.676;23.352;2023-09-18T06:31:30;21.90;;;13.63;;
56830;SDS011;42713;42.676;23.352;2023-09-18T06:33:56;23.05;;;14.38;;
56830;SDS011;42713;42.676;23.352;2023-09-18T06:36:22;23.80;;;14.70;;
56830;SDS011;42713;42.676;23.352;2023-09-18T06:38:47;18.90;;;14.52;;
56830;SDS011;42713;42.676;23.352;2023-09-18T06:41:13;23.08;;;15.65;;
56830;SDS011;42713;42.676;23.352;2023-09-18T06:43:39;22.90;;;14.65;;
56830;SDS011;42713;42.676;23.352;2023-09-18T06:46:06;26.95;;;15.40;;
56830;SDS011;42713;42.676;23.352;2023-09-18T06:48:33;23.17;;;15.98;;
56830;SDS011;42713;42.676;23.352;2023-09-18T06:50:58;26.75;;;16.63;;
56830;SDS011;42713;42.676;23.352;2023-09-18T06:53:27;23.98;;;15.77;;
56830;SDS011;42713;42.676;23.352;2023-09-18T06:55:53;22.08;;;14.23;;
56830;SDS011;42713;42.676;23.352;2023-09-18T06:58:19;39.35;;;15.57;;
56830;SDS011;42713;42.676;23.352;2023-09-18T07:00:45;27.48;;;16.55;;
56830;SDS011;42713;42.676;23.352;2023-09-18T07:03:10;23.98;;;15.48;;
56830;SDS011;42713;42.676;23.352;2023-09-18T07:05:36;22.63;;;15.35;;
56830;SDS011;42713;42.676;23.352;2023-09-18T07:08:02;20.42;;;14.65;;
56830;SDS011;42713;42.676;23.352;2023-09-18T07:10:30;23.33;;;15.40;;
56830;SDS011;42713;42.676;23.352;2023-09-18T07:12:56;25.13;;;15.52;;
56830;SDS011;42713;42.676;23.352;2023-09-18T07:15:21;24.33;;;15.27;;
56830;SDS011;42713;42.676;23.352;2023-09-18T07:17:47;22.77;;;14.80;;
56830;SDS011;42713;42.676;23.352;2023-09-18T07:20:13;22.95;;;15.63;;
56830;SDS011;42713;42.676;23.352;2023-09-18T07:22:44;25.05;;;14.80;;
56830;SDS011;42713;42.676;23.352;2023-09-18T07:25:11;22.58;;;15.38;;
56830;SDS011;42713;42.676;23.352;2023-09-18T07:27:37;27.05;;;15.88;;
56830;SDS011;42713;42.676;23.352;2023-09-18T07:30:05;24.77;;;14.73;;
56830;SDS011;42713;42.676;23.352;2023-09-18T07:32:31;23.10;;;15.43;;
56830;SDS011;42713;42.676;23.352;2023-09-18T07:34:57;21.83;;;15.18;;
56830;SDS011;42713;42.676;23.352;2023-09-18T07:37:26;24.17;;;16.38;;
56830;SDS011;42713;42.676;23.352;2023-09-18T07:40:06;25.98;;;16.05;;
56830;SDS011;42713;42.676;23.352;2023-09-18T07:42:33;21.63;;;14.13;;
56830;SDS011;42713;42.676;23.352;2023-09-18T07:44:59;22.20;;;14.65;;
56830;SDS011;42713;42.676;23.352;2023-09-18T07:47:27;19.88;;;14.63;;
56830;SDS011;42713;42.676;23.352;2023-09-18T07:49:53;21.42;;;15.23;;
56830;SDS011;42713;42.676;23.352;2023-09-18T07:52:19;19.50;;;14.55;;
56830;SDS011;42713;42.676;23.352;2023-09-18T07:54:45;22.48;;;15.60;;
56830;SDS011;42713;42.676;23.352;2023-09-18T07:57:15;19.58;;;14.82;;
56830;SDS011;42713;42.676;23.352;2023-09-18T07:59:42;19.52;;;14.82;;
56830;SDS011;42713;42.676;23.352;2023-09-18T08:02:08;18.63;;;14.40;;
56830;SDS011;42713;42.676;23.352;2023-09-18T08:07:12;21.42;;;15.02;;
56830;SDS011;42713;42.676;23.352;2023-09-18T08:09:48;23.75;;;16.00;;
56830;SDS011;42713;42.676;23.352;2023-09-18T08:16:44;18.90;;;12.98;;
56830;SDS011;42713;42.676;23.352;2023-09-18T08:19:38;19.80;;;13.50;;
56830;SDS011;42713;42.676;23.352;2023-09-18T08:22:20;20.00;;;14.05;;
56830;SDS011;42713;42.676;23.352;2023-09-18T08:24:46;22.65;;;14.27;;
56830;SDS011;42713;42.676;23.352;2023-09-18T08:27:14;19.90;;;13.98;;
56830;SDS011;42713;42.676;23.352;2023-09-18T08:29:45;19.40;;;13.45;;
56830;SDS011;42713;42.676;23.352;2023-09-18T08:32:44;23.83;;;13.70;;
56830;SDS011;42713;42.676;23.352;2023-09-18T08:35:13;20.25;;;13.75;;
56830;SDS011;42713;42.676;23.352;2023-09-18T08:37:44;16.77;;;12.90;;
56830;SDS011;42713;42.676;23.352;2023-09-18T08:40:13;22.13;;;13.02;;
56830;SDS011;42713;42.676;23.352;2023-09-18T08:42:48;21.50;;;13.23;;
56830;SDS011;42713;42.676;23.352;2023-09-18T08:48:13;19.02;;;13.18;;
56830;SDS011;42713;42.676;23.352;2023-09-18T08:50:41;21.20;;;14.52;;
56830;SDS011;42713;42.676;23.352;2023-09-18T08:53:07;18.30;;;12.50;;
56830;SDS011;42713;42.676;23.352;2023-09-18T08:55:36;19.88;;;13.77;;
56830;SDS011;42713;42.676;23.352;2023-09-18T08:58:02;19.23;;;13.43;;
56830;SDS011;42713;42.676;23.352;2023-09-18T09:00:29;22.75;;;13.80;;
56830;SDS011;42713;42.676;23.352;2023-09-18T09:02:54;18.73;;;13.07;;
56830;SDS011;42713;42.676;23.352;2023-09-18T09:07:50;16.77;;;12.23;;
56830;SDS011;42713;42.676;23.352;2023-09-18T09:10:16;17.50;;;12.13;;
56830;SDS011;42713;42.676;23.352;2023-09-18T09:12:49;18.67;;;11.57;;
56830;SDS011;42713;42.676;23.352;2023-09-18T09:15:31;22.63;;;12.05;;
56830;SDS011;42713;42.676;23.352;2023-09-18T09:18:05;19.08;;;11.50;;
56830;SDS011;42713;42.676;23.352;2023-09-18T09:20:31;16.63;;;10.85;;
56830;SDS011;42713;42.676;23.352;2023-09-18T09:23:01;16.02;;;11.98;;
56830;SDS011;42713;42.676;23.352;2023-09-18T09:25:28;17.17;;;10.07;;
56830;SDS011;42713;42.676;23.352;2023-09-18T09:28:00;16.70;;;11.48;;
56830;SDS011;42713;42.676;23.352;2023-09-18T09:30:27;16.90;;;11.00;;
56830;SDS011;42713;42.676;23.352;2023-09-18T09:32:54;18.05;;;10.77;;
56830;SDS011;42713;42.676;23.352;2023-09-18T09:35:24;16.83;;;11.02;;
56830;SDS011;42713;42.676;23.352;2023-09-18T09:37:56;16.65;;;10.32;;
56830;SDS011;42713;42.676;23.352;2023-09-18T09:40:28;18.90;;;10.02;;
56830;SDS011;42713;42.676;23.352;2023-09-18T09:42:55;16.33;;;9.55;;
56830;SDS011;42713;42.676;23.352;2023-09-18T09:45:32;15.93;;;9.77;;
56830;SDS011;42713;42.676;23.352;2023-09-18T09:48:04;12.70;;;8.20;;
56830;SDS011;42713;42.676;23.352;2023-09-18T09:50:41;12.93;;;8.02;;
56830;SDS011;42713;42.676;23.352;2023-09-18T09:53:11;16.90;;;9.57;;
56830;SDS011;42713;42.676;23.352;2023-09-18T09:55:38;16.42;;;8.80;;
56830;SDS011;42713;42.676;23.352;2023-09-18T09:58:08;13.00;;;8.77;;
56830;SDS011;42713;42.676;23.352;2023-09-18T10:00:39;15.93;;;10.15;;
56830;SDS011;42713;42.676;23.352;2023-09-18T10:03:09;13.52;;;8.68;;
56830;SDS011;42713;42.676;23.352;2023-09-18T10:05:36;16.40;;;9.23;;
56830;SDS011;42713;42.676;23.352;2023-09-18T10:08:06;14.10;;;7.97;;
56830;SDS011;42713;42.676;23.352;2023-09-18T10:10:38;12.95;;;7.45;;
56830;SDS011;42713;42.676;23.352;2023-09-18T10:13:12;14.73;;;8.52;;
56830;SDS011;42713;42.676;23.352;2023-09-18T10:18:20;15.50;;;8.80;;
56830;SDS011;42713;42.676;23.352;2023-09-18T10:21:31;13.90;;;7.82;;
56830;SDS011;42713;42.676;23.352;2023-09-18T10:24:09;12.30;;;7.63;;
56830;SDS011;42713;42.676;23.352;2023-09-18T10:26:57;14.77;;;8.32;;
56830;SDS011;42713;42.676;23.352;2023-09-18T10:33:11;15.88;;;8.00;;
56830;SDS011;42713;42.676;23.352;2023-09-18T10:35:36;14.90;;;7.43;;
56830;SDS011;42713;42.676;23.352;2023-09-18T10:38:03;17.00;;;7.05;;
56830;SDS011;42713;42.676;23.352;2023-09-18T10:40:31;14.68;;;6.38;;
56830;SDS011;42713;42.676;23.352;2023-09-18T10:42:59;19.70;;;7.25;;
56830;SDS011;42713;42.676;23.352;2023-09-18T10:45:29;11.90;;;6.57;;
56830;SDS011;42713;42.676;23.352;2023-09-18T10:47:55;11.02;;;6.28;;
56830;SDS011;42713;42.676;23.352;2023-09-18T10:50:25;10.77;;;5.38;;
56830;SDS011;42713;42.676;23.352;2023-09-18T10:52:57;12.98;;;5.82;;
56830;SDS011;42713;42.676;23.352;2023-09-18T10:55:24;10.82;;;5.20;;
56830;SDS011;42713;42.676;23.352;2023-09-18T10:57:53;13.82;;;6.35;;
56830;SDS011;42713;42.676;23.352;2023-09-18T11:00:21;10.60;;;5.07;;
56830;SDS011;42713;42.676;23.352;2023-09-18T11:02:53;9.57;;;4.82;;
56830;SDS011;42713;42.676;23.352;2023-09-18T11:05:33;8.20;;;4.55;;
56830;SDS011;42713;42.676;23.352;2023-09-18T11:11:10;10.32;;;5.15;;
56830;SDS011;42713;42.676;23.352;2023-09-18T11:13:39;12.25;;;4.85;;
56830;SDS011;42713;42.676;23.352;2023-09-18T11:16:13;8.80;;;4.68;;
56830;SDS011;42713;42.676;23.352;2023-09-18T11:18:39;9.25;;;5.38;;
56830;SDS011;42713;42.676;23.352;2023-09-18T11:21:11;12.77;;;5.82;;
56830;SDS011;42713;42.676;23.352;2023-09-18T11:23:38;19.08;;;7.78;;
56830;SDS011;42713;42.676;23.352;2023-09-18T11:26:10;24.90;;;8.73;;
56830;SDS011;42713;42.676;23.352;2023-09-18T11:28:36;14.75;;;6.03;;
56830;SDS011;42713;42.676;23.352;2023-09-18T11:31:03;9.68;;;4.90;;
56830;SDS011;42713;42.676;23.352;2023-09-18T11:33:30;11.02;;;5.20;;
56830;SDS011;42713;42.676;23.352;2023-09-18T11:35:56;12.90;;;7.25;;
56830;SDS011;42713;42.676;23.352;2023-09-18T11:38:21;10.85;;;5.70;;
56830;SDS011;42713;42.676;23.352;2023-09-18T11:40:48;11.15;;;5.75;;
56830;SDS011;42713;42.676;23.352;2023-09-18T11:43:25;14.60;;;7.65;;
56830;SDS011;42713;42.676;23.352;2023-09-18T11:45:55;11.93;;;6.38;;
56830;SDS011;42713;42.676;23.352;2023-09-18T11:48:22;12.02;;;4.95;;
56830;SDS011;42713;42.676;23.352;2023-09-18T11:50:53;10.02;;;4.20;;
56830;SDS011;42713;42.676;23.352;2023-09-18T11:53:19;9.05;;;4.68;;
56830;SDS011;42713;42.676;23.352;2023-09-18T11:55:46;9.20;;;4.63;;
56830;SDS011;42713;42.676;23.352;2023-09-18T11:58:13;11.13;;;4.80;;
56830;SDS011;42713;42.676;23.352;2023-09-18T12:00:38;10.10;;;4.38;;
56830;SDS011;42713;42.676;23.352;2023-09-18T12:03:20;9.93;;;4.78;;
56830;SDS011;42713;42.676;23.352;2023-09-18T12:05:57;9.98;;;4.35;;
56830;SDS011;42713;42.676;23.352;2023-09-18T12:08:25;10.05;;;4.18;;
56830;SDS011;42713;42.676;23.352;2023-09-18T12:10:54;11.68;;;4.35;;
56830;SDS011;42713;42.676;23.352;2023-09-18T12:13:20;9.45;;;4.50;;
56830;SDS011;42713;42.676;23.352;2023-09-18T12:15:47;8.32;;;4.45;;
56830;SDS011;42713;42.676;23.352;2023-09-18T12:18:14;9.73;;;5.38;;
56830;SDS011;42713;42.676;23.352;2023-09-18T12:20:49;9.65;;;4.43;;
56830;SDS011;42713;42.676;23.352;2023-09-18T12:23:15;8.60;;;4.78;;
56830;SDS011;42713;42.676;23.352;2023-09-18T12:25:42;11.35;;;4.30;;
56830;SDS011;42713;42.676;23.352;2023-09-18T12:28:11;9.68;;;4.70;;
56830;SDS011;42713;42.676;23.352;2023-09-18T12:30:39;10.80;;;4.20;;
56830;SDS011;42713;42.676;23.352;2023-09-18T12:33:05;8.40;;;4.53;;
56830;SDS011;42713;42.676;23.352;2023-09-18T12:35:31;9.00;;;4.65;;
56830;SDS011;42713;42.676;23.352;2023-09-18T12:37:59;9.07;;;4.57;;
56830;SDS011;42713;42.676;23.352;2023-09-18T12:40:26;12.63;;;4.70;;
56830;SDS011;42713;42.676;23.352;2023-09-18T12:42:58;8.85;;;4.82;;
56830;SDS011;42713;42.676;23.352;2023-09-18T12:45:24;11.10;;;5.28;;
56830;SDS011;42713;42.676;23.352;2023-09-18T12:47:51;8.85;;;4.40;;
56830;SDS011;42713;42.676;23.352;2023-09-18T12:50:19;11.00;;;4.53;;
56830;SDS011;42713;42.676;23.352;2023-09-18T12:52:45;11.20;;;4.85;;
56830;SDS011;42713;42.676;23.352;2023-09-18T12:55:20;7.38;;;4.22;;
56830;SDS011;42713;42.676;23.352;2023-09-18T12:57:47;9.90;;;4.35;;
56830;SDS011;42713;42.676;23.352;2023-09-18T13:00:15;10.10;;;4.57;;
56830;SDS011;42713;42.676;23.352;2023-09-18T13:02:45;9.27;;;4.35;;
56830;SDS011;42713;42.676;23.352;2023-09-18T13:05:11;8.75;;;4.57;;
56830;SDS011;42713;42.676;23.352;2023-09-18T13:07:45;12.18;;;4.68;;
56830;SDS011;42713;42.676;23.352;2023-09-18T13:10:12;13.30;;;4.20;;
56830;SDS011;42713;42.676;23.352;2023-09-18T13:12:46;9.00;;;4.57;;
56830;SDS011;42713;42.676;23.352;2023-09-18T13:15:23;10.05;;;4.03;;
56830;SDS011;42713;42.676;23.352;2023-09-18T13:17:54;12.70;;;4.40;;
56830;SDS011;42713;42.676;23.352;2023-09-18T13:20:21;8.05;;;4.20;;
56830;SDS011;42713;42.676;23.352;2023-09-18T13:22:52;13.27;;;4.57;;
56830;SDS011;42713;42.676;23.352;2023-09-18T13:25:19;12.55;;;4.78;;
56830;SDS011;42713;42.676;23.352;2023-09-18T13:30:15;9.82;;;4.03;;
56830;SDS011;42713;42.676;23.352;2023-09-18T13:32:42;9.00;;;4.15;;
56830;SDS011;42713;42.676;23.352;2023-09-18T13:35:18;9.02;;;4.10;;
56830;SDS011;42713;42.676;23.352;2023-09-18T13:37:44;9.75;;;3.97;;
56830;SDS011;42713;42.676;23.352;2023-09-18T13:40:10;7.60;;;4.05;;
56830;SDS011;42713;42.676;23.352;2023-09-18T13:42:37;9.98;;;4.05;;
56830;SDS011;42713;42.676;23.352;2023-09-18T13:45:06;8.60;;;4.22;;
56830;SDS011;42713;42.676;23.352;2023-09-18T13:47:33;8.57;;;4.03;;
56830;SDS011;42713;42.676;23.352;2023-09-18T13:49:59;14.65;;;4.40;;
56830;SDS011;42713;42.676;23.352;2023-09-18T13:52:28;10.65;;;4.00;;
56830;SDS011;42713;42.676;23.352;2023-09-18T13:54:55;8.50;;;4.05;;
56830;SDS011;42713;42.676;23.352;2023-09-18T13:57:21;9.95;;;3.50;;
56830;SDS011;42713;42.676;23.352;2023-09-18T13:59:47;12.25;;;4.32;;
56830;SDS011;42713;42.676;23.352;2023-09-18T14:02:14;8.75;;;4.22;;
56830;SDS011;42713;42.676;23.352;2023-09-18T14:04:41;8.48;;;3.75;;
56830;SDS011;42713;42.676;23.352;2023-09-18T14:07:07;10.00;;;3.78;;
56830;SDS011;42713;42.676;23.352;2023-09-18T14:09:34;12.55;;;3.80;;
56830;SDS011;42713;42.676;23.352;2023-09-18T14:12:00;8.48;;;3.55;;
56830;SDS011;42713;42.676;23.352;2023-09-18T14:14:26;8.85;;;4.30;;
56830;SDS011;42713;42.676;23.352;2023-09-18T14:16:51;10.73;;;3.90;;
56830;SDS011;42713;42.676;23.352;2023-09-18T14:19:17;12.57;;;3.95;;
56830;SDS011;42713;42.676;23.352;2023-09-18T14:21:43;11.00;;;4.25;;
56830;SDS011;42713;42.676;23.352;2023-09-18T14:24:08;7.28;;;3.90;;
56830;SDS011;42713;42.676;23.352;2023-09-18T14:26:35;9.02;;;4.10;;
56830;SDS011;42713;42.676;23.352;2023-09-18T14:29:10;11.95;;;3.97;;
56830;SDS011;42713;42.676;23.352;2023-09-18T14:31:36;9.43;;;3.95;;
56830;SDS011;42713;42.676;23.352;2023-09-18T14:34:03;10.52;;;3.90;;
56830;SDS011;42713;42.676;23.352;2023-09-18T14:36:30;8.05;;;4.07;;
56830;SDS011;42713;42.676;23.352;2023-09-18T14:38:57;9.82;;;3.97;;
56830;SDS011;42713;42.676;23.352;2023-09-18T14:41:24;8.55;;;3.80;;
56830;SDS011;42713;42.676;23.352;2023-09-18T14:43:51;7.22;;;3.55;;
56830;SDS011;42713;42.676;23.352;2023-09-18T14:46:17;11.95;;;3.88;;
56830;SDS011;42713;42.676;23.352;2023-09-18T14:48:43;8.90;;;3.88;;